Time;durP1;ratioP1;P1;durP2;ratioP2;P2;SDS_P1;SDS_P2;PMS_P1;PMS_P2;Temp;Humidity;BMP_temperature;BMP_pressure;BME280_temperature;BME280_humidity;BME280_pressure;Samples;Min_cycle;Max_cycle;Signal;HPM_P1;HPM_P2
2023/07/18 00:00:33;;;;;;;2.45;1.90;;;;;;;23.51;46.51;102080.16;4971517;28;20051;-70
2023/07/18 00:02:59;;;;;;;2.90;1.95;;;;;;;23.59;46.47;102087.31;4969569;28;20047;-70
2023/07/18 00:05:25;;;;;;;4.85;2.35;;;;;;;23.44;46.43;102056.13;4973280;28;20047;-70
2023/07/18 00:07:51;;;;;;;3.20;1.77;;;;;;;23.57;46.43;102081.34;4983595;28;20130;-69
2023/07/18 00:10:19;;;;;;;3.58;2.03;;;;;;;23.55;46.36;102078.84;4970687;28;20039;-70
2023/07/18 00:12:45;;;;;;;2.90;2.30;;;;;;;23.51;46.43;102069.53;4970082;28;20126;-70
2023/07/18 00:15:11;;;;;;;3.08;2.00;;;;;;;23.55;46.38;102072.69;4973263;28;20066;-70
2023/07/18 00:17:37;;;;;;;4.47;2.33;;;;;;;23.53;46.58;102075.53;4972076;28;20053;-69
2023/07/18 00:20:07;;;;;;;2.85;1.90;;;;;;;23.51;46.66;102075.66;4966051;28;20077;-70
2023/07/18 00:22:33;;;;;;;3.42;2.10;;;;;;;23.51;46.61;102072.19;4969120;28;20101;-69
2023/07/18 00:24:58;;;;;;;2.95;1.70;;;;;;;23.50;46.68;102071.34;4969577;28;20054;-70
2023/07/18 00:27:24;;;;;;;2.78;1.85;;;;;;;23.50;46.69;102074.03;4976776;28;20509;-69
2023/07/18 00:29:50;;;;;;;3.28;1.88;;;;;;;23.49;46.68;102082.16;4967394;28;20043;-70
2023/07/18 00:32:16;;;;;;;3.05;1.75;;;;;;;23.38;46.80;102071.94;4970810;28;20035;-69
2023/07/18 00:34:44;;;;;;;3.13;2.13;;;;;;;23.46;46.85;102074.53;4952802;28;20040;-70
2023/07/18 00:37:10;;;;;;;4.55;1.85;;;;;;;23.45;46.80;102076.38;4967872;28;20050;-70
2023/07/18 00:39:35;;;;;;;2.88;1.90;;;;;;;23.44;46.58;102072.06;4968815;28;20053;-70
2023/07/18 00:42:01;;;;;;;5.75;2.13;;;;;;;23.42;46.67;102067.94;4967651;28;20050;-70
2023/07/18 00:44:26;;;;;;;3.85;2.25;;;;;;;23.43;46.80;102066.94;4965676;28;20046;-70
2023/07/18 00:46:53;;;;;;;5.40;2.20;;;;;;;23.43;46.79;102065.09;4966999;28;20752;-69
2023/07/18 00:49:18;;;;;;;2.97;1.92;;;;;;;23.42;46.74;102062.63;4968488;28;20245;-69
2023/07/18 00:51:44;;;;;;;2.70;2.00;;;;;;;23.42;46.76;102065.28;4968447;28;20529;-70
2023/07/18 00:54:10;;;;;;;4.13;1.98;;;;;;;23.41;46.90;102055.66;4964403;28;20054;-70
2023/07/18 00:56:36;;;;;;;3.22;1.92;;;;;;;23.39;46.94;102055.00;4970574;28;20042;-70
2023/07/18 00:59:05;;;;;;;2.78;1.60;;;;;;;23.39;46.79;102052.34;4973079;28;20038;-69
2023/07/18 01:01:30;;;;;;;5.75;2.50;;;;;;;23.36;46.84;102056.16;4969161;28;20406;-70
2023/07/18 01:03:55;;;;;;;2.80;1.75;;;;;;;23.38;46.85;102056.00;4971049;28;20046;-70
2023/07/18 01:06:24;;;;;;;2.53;1.90;;;;;;;23.37;47.01;102063.13;4969055;28;20050;-69
2023/07/18 01:08:54;;;;;;;2.03;1.63;;;;;;;23.30;46.94;102051.53;4984616;28;20043;-69
2023/07/18 01:11:19;;;;;;;4.65;1.80;;;;;;;23.37;47.01;102055.16;4970819;28;20082;-70
2023/07/18 01:13:45;;;;;;;2.63;1.98;;;;;;;23.38;47.08;102061.31;4972281;28;20046;-70
2023/07/18 01:16:13;;;;;;;2.95;1.77;;;;;;;23.27;46.95;102040.41;4971518;28;20155;-70
2023/07/18 01:18:40;;;;;;;2.50;1.98;;;;;;;23.27;47.06;102048.41;4968474;28;20031;-70
2023/07/18 01:21:09;;;;;;;3.13;1.98;;;;;;;23.37;46.77;102065.78;4971025;28;20050;-70
2023/07/18 01:23:35;;;;;;;4.47;2.25;;;;;;;23.37;47.04;102055.16;4985993;28;20520;-69
2023/07/18 01:26:00;;;;;;;2.90;2.00;;;;;;;23.25;46.79;102043.25;4976788;28;20035;-70
2023/07/18 01:28:26;;;;;;;2.30;1.80;;;;;;;23.29;47.11;102057.03;4970531;28;20046;-70
2023/07/18 01:30:54;;;;;;;3.97;1.85;;;;;;;23.33;47.14;102058.31;4969481;28;20413;-70
2023/07/18 01:33:19;;;;;;;4.88;2.42;;;;;;;23.34;47.14;102062.63;4972522;28;20063;-70
2023/07/18 01:35:46;;;;;;;3.85;1.75;;;;;;;23.32;47.28;102062.81;4971434;28;20042;-69
2023/07/18 01:38:13;;;;;;;3.78;1.88;;;;;;;23.30;47.17;102064.00;4972101;28;20034;-70
2023/07/18 01:40:38;;;;;;;3.45;1.88;;;;;;;23.30;47.24;102061.34;4968236;28;20871;-69
2023/07/18 01:43:04;;;;;;;3.95;2.00;;;;;;;23.30;47.13;102062.16;4972305;28;20035;-70
2023/07/18 01:45:29;;;;;;;3.53;1.95;;;;;;;23.32;47.00;102062.81;4970655;28;20061;-70
2023/07/18 01:47:56;;;;;;;2.28;1.92;;;;;;;23.33;46.99;102064.47;4971084;28;20041;-70
2023/07/18 01:50:21;;;;;;;3.22;1.95;;;;;;;23.33;47.09;102060.97;4971221;28;20049;-70
2023/07/18 01:52:47;;;;;;;2.42;1.67;;;;;;;23.31;47.12;102057.66;4971119;28;20035;-69
2023/07/18 01:55:13;;;;;;;2.00;1.60;;;;;;;23.21;47.21;102042.78;4970187;28;20054;-70
2023/07/18 01:57:39;;;;;;;2.53;2.00;;;;;;;23.29;47.14;102057.84;4970652;28;20062;-70
2023/07/18 02:00:10;;;;;;;3.08;2.10;;;;;;;23.28;47.07;102052.69;4973538;28;20129;-69
2023/07/18 02:02:39;;;;;;;3.20;1.98;;;;;;;23.15;47.22;102032.81;4974011;28;20046;-70
2023/07/18 02:05:06;;;;;;;5.30;2.10;;;;;;;23.17;47.47;102030.84;4978339;28;20123;-70
2023/07/18 02:07:33;;;;;;;3.15;2.05;;;;;;;23.23;47.14;102039.94;4976886;28;20410;-69
2023/07/18 02:10:01;;;;;;;3.45;2.22;;;;;;;23.25;46.99;102043.25;4975011;28;20088;-70
2023/07/18 02:12:27;;;;;;;3.92;2.28;;;;;;;23.21;47.14;102039.28;4967376;28;20031;-69
2023/07/18 02:14:53;;;;;;;3.95;1.95;;;;;;;23.21;47.24;102040.13;4972300;28;20950;-70
2023/07/18 02:17:18;;;;;;;6.22;2.10;;;;;;;23.21;47.32;102041.94;4970986;28;20042;-70
2023/07/18 02:19:44;;;;;;;2.13;1.50;;;;;;;23.23;47.27;102039.94;4968416;28;20070;-70
2023/07/18 02:22:10;;;;;;;2.83;2.30;;;;;;;23.23;47.42;102031.97;4970861;28;20050;-70
2023/07/18 02:24:35;;;;;;;2.67;1.85;;;;;;;23.20;47.40;102027.00;4970361;28;20057;-70
2023/07/18 02:27:02;;;;;;;3.58;2.05;;;;;;;23.19;47.29;102030.66;4967809;28;20039;-70
2023/07/18 02:29:28;;;;;;;3.15;1.92;;;;;;;23.16;47.26;102028.34;4968113;28;20098;-70
2023/07/18 02:31:53;;;;;;;3.08;1.88;;;;;;;23.22;47.06;102035.63;4966564;28;20046;-69
2023/07/18 02:34:19;;;;;;;3.95;2.00;;;;;;;23.19;47.45;102034.16;4967805;28;20074;-70
2023/07/18 02:36:45;;;;;;;3.40;2.10;;;;;;;23.20;47.41;102029.66;4968194;28;20751;-70
2023/07/18 02:39:11;;;;;;;2.40;1.67;;;;;;;23.12;47.21;102017.22;4970583;28;20102;-70
2023/07/18 02:41:37;;;;;;;1.88;1.60;;;;;;;23.12;47.38;102016.41;4970294;28;20150;-70
2023/07/18 02:44:04;;;;;;;3.13;1.75;;;;;;;23.19;47.25;102034.16;4970933;28;20045;-70
2023/07/18 02:46:30;;;;;;;2.08;1.70;;;;;;;23.18;47.36;102029.84;4983906;28;20050;-70
2023/07/18 02:48:55;;;;;;;3.95;2.03;;;;;;;23.10;47.61;102021.06;4970928;28;20097;-70
2023/07/18 02:51:21;;;;;;;4.28;1.75;;;;;;;23.16;47.43;102029.19;4985596;28;20141;-70
2023/07/18 02:53:49;;;;;;;2.38;1.80;;;;;;;23.16;47.55;102028.34;4985950;28;20038;-69
2023/07/18 02:56:15;;;;;;;3.70;1.90;;;;;;;23.16;47.25;102028.34;4968635;28;20449;-69
2023/07/18 02:58:41;;;;;;;1.80;1.65;;;;;;;23.18;47.53;102031.66;4983397;28;20042;-70
2023/07/18 03:01:07;;;;;;;4.28;2.08;;;;;;;23.13;47.46;102029.50;4969056;28;20050;-70
2023/07/18 03:03:38;;;;;;;3.28;1.65;;;;;;;23.16;47.28;102025.66;4953612;28;20102;-70
2023/07/18 03:06:04;;;;;;;3.97;2.00;;;;;;;23.14;47.46;102025.84;4970278;28;20401;-70
2023/07/18 03:08:32;;;;;;;3.50;1.52;;;;;;;23.13;47.59;102034.81;4970592;28;20050;-70
2023/07/18 03:11:00;;;;;;;2.08;1.70;;;;;;;23.03;47.42;102014.78;4966291;28;20042;-70
2023/07/18 03:13:26;;;;;;;2.95;1.90;;;;;;;23.12;47.54;102032.34;4970546;28;20039;-70
2023/07/18 03:15:52;;;;;;;4.88;2.13;;;;;;;23.06;47.57;102020.59;4971618;28;20038;-70
2023/07/18 03:18:17;;;;;;;3.75;1.98;;;;;;;23.11;47.58;102034.16;4969197;28;20031;-70
2023/07/18 03:20:43;;;;;;;3.80;2.13;;;;;;;23.10;47.59;102031.69;4969176;28;20043;-70
2023/07/18 03:23:09;;;;;;;3.85;2.08;;;;;;;22.98;47.45;102015.31;4952594;28;20054;-70
2023/07/18 03:25:34;;;;;;;2.72;1.80;;;;;;;23.06;47.55;102027.72;4973260;28;20074;-70
2023/07/18 03:28:00;;;;;;;4.07;1.95;;;;;;;23.11;47.50;102034.16;4966104;28;20342;-70
2023/07/18 03:30:25;;;;;;;2.90;1.58;;;;;;;23.09;47.45;102032.69;4970606;28;20035;-70
2023/07/18 03:32:51;;;;;;;3.47;1.90;;;;;;;23.10;47.59;102037.84;4969032;28;20058;-70
2023/07/18 03:35:17;;;;;;;2.90;1.80;;;;;;;23.09;47.55;102030.03;4970153;28;20045;-70
2023/07/18 03:37:43;;;;;;;2.08;1.52;;;;;;;23.10;47.58;102034.34;4970657;28;20413;-69
2023/07/18 03:40:10;;;;;;;4.07;1.90;;;;;;;23.02;47.44;102029.06;4970083;28;20046;-69
2023/07/18 03:42:36;;;;;;;2.60;1.77;;;;;;;23.08;47.42;102039.00;4966639;28;20042;-70
2023/07/18 03:45:03;;;;;;;3.05;1.70;;;;;;;23.10;47.50;102040.50;4968241;28;20077;-69
2023/07/18 03:47:28;;;;;;;1.73;1.45;;;;;;;23.00;47.76;102023.94;4982866;28;20046;-70
2023/07/18 03:49:54;;;;;;;4.07;1.95;;;;;;;23.07;47.65;102032.03;4970448;28;20156;-70
2023/07/18 03:52:19;;;;;;;4.47;1.85;;;;;;;23.07;47.63;102032.03;4969454;28;20030;-69
2023/07/18 03:54:45;;;;;;;7.07;2.40;;;;;;;23.05;47.74;102034.88;4964846;28;20437;-70
2023/07/18 03:57:12;;;;;;;2.45;1.45;;;;;;;23.04;47.56;102041.19;4967765;28;20282;-70
2023/07/18 03:59:37;;;;;;;2.65;1.75;;;;;;;23.07;47.68;102043.50;4971208;28;20058;-69
2023/07/18 04:02:03;;;;;;;2.50;1.75;;;;;;;23.06;47.59;102041.00;4971811;28;20043;-70
2023/07/18 04:04:30;;;;;;;4.05;2.22;;;;;;;23.05;47.52;102039.34;4969755;28;20688;-70
2023/07/18 04:06:55;;;;;;;2.53;1.70;;;;;;;23.05;47.76;102034.88;4974171;28;20046;-70
2023/07/18 04:09:21;;;;;;;3.95;1.70;;;;;;;23.03;47.59;102036.88;4969741;28;20129;-69
2023/07/18 04:11:46;;;;;;;2.25;1.52;;;;;;;23.05;47.40;102026.06;4969115;28;20053;-69
2023/07/18 04:14:13;;;;;;;2.80;1.77;;;;;;;22.96;47.55;102019.13;4969496;28;20101;-70
2023/07/18 04:16:38;;;;;;;3.08;1.67;;;;;;;22.97;47.82;102023.44;4967313;28;20253;-70
2023/07/18 04:19:04;;;;;;;2.05;1.70;;;;;;;23.02;47.60;102032.56;4967657;28;20043;-70
2023/07/18 04:21:30;;;;;;;1.98;1.55;;;;;;;23.05;47.55;102037.53;4970386;28;21560;-70
2023/07/18 04:23:56;;;;;;;3.22;1.83;;;;;;;23.05;47.56;102031.38;4966864;28;20134;-70
2023/07/18 04:26:21;;;;;;;2.70;1.73;;;;;;;23.04;47.85;102029.72;4971644;28;20050;-70
2023/07/18 04:28:48;;;;;;;3.08;1.95;;;;;;;22.98;47.81;102025.94;4971101;28;20041;-69
2023/07/18 04:31:13;;;;;;;2.17;1.88;;;;;;;23.01;47.74;102024.75;4968945;28;20054;-70
2023/07/18 04:33:39;;;;;;;3.60;1.77;;;;;;;23.02;47.66;102029.06;4969846;28;20054;-70
2023/07/18 04:36:06;;;;;;;2.65;1.92;;;;;;;22.94;47.64;102016.63;4968116;28;20045;-69
2023/07/18 04:38:33;;;;;;;1.85;1.40;;;;;;;23.00;47.85;102023.13;4967250;28;20107;-70
2023/07/18 04:40:59;;;;;;;2.88;1.75;;;;;;;23.01;47.67;102025.59;4972080;28;20045;-70
2023/07/18 04:43:25;;;;;;;4.22;2.05;;;;;;;23.02;47.49;102024.59;4967118;28;20062;-70
2023/07/18 04:45:50;;;;;;;2.60;1.85;;;;;;;23.03;47.44;102022.75;4970962;28;20160;-69
2023/07/18 04:48:18;;;;;;;3.03;2.05;;;;;;;23.03;47.50;102028.06;4971395;28;20034;-68
2023/07/18 04:50:45;;;;;;;3.70;2.17;;;;;;;23.01;47.75;102022.94;4967412;28;20563;-68
2023/07/18 04:53:11;;;;;;;3.97;1.95;;;;;;;23.03;47.59;102026.25;4966011;28;20035;-70
2023/07/18 04:55:38;;;;;;;2.60;1.80;;;;;;;22.98;47.68;102014.47;4970374;28;20053;-70
2023/07/18 04:58:06;;;;;;;3.10;1.98;;;;;;;23.01;47.49;102027.41;4970593;28;20069;-70
2023/07/18 05:00:33;;;;;;;2.92;1.60;;;;;;;23.01;47.53;102024.75;4968363;28;20066;-70
2023/07/18 05:02:59;;;;;;;2.92;2.05;;;;;;;23.01;47.72;102030.91;4969020;28;20089;-70
2023/07/18 05:05:28;;;;;;;1.83;1.50;;;;;;;23.02;47.72;102018.44;4970600;28;20054;-69
2023/07/18 05:07:54;;;;;;;2.58;1.67;;;;;;;23.05;47.77;102016.28;4970876;28;20066;-69
2023/07/18 05:10:21;;;;;;;4.38;1.95;;;;;;;22.95;47.51;102009.50;4969693;28;20073;-69
2023/07/18 05:12:46;;;;;;;2.33;1.60;;;;;;;23.03;47.66;102026.25;4972484;28;20069;-69
2023/07/18 05:15:12;;;;;;;2.78;1.73;;;;;;;23.04;47.54;102025.25;4968241;28;20051;-70
2023/07/18 05:17:37;;;;;;;3.03;1.85;;;;;;;23.02;47.51;102013.13;4970046;28;20039;-70
2023/07/18 05:20:04;;;;;;;3.40;2.30;;;;;;;22.96;47.72;102013.81;4969661;28;20081;-70
2023/07/18 05:22:30;;;;;;;3.58;1.65;;;;;;;23.05;47.34;102031.38;4969629;28;20496;-69
2023/07/18 05:24:55;;;;;;;4.32;2.17;;;;;;;23.04;47.69;102027.91;4966285;28;20043;-69
2023/07/18 05:27:21;;;;;;;3.33;2.10;;;;;;;23.04;47.34;102025.25;4968965;28;20031;-69
2023/07/18 05:29:48;;;;;;;3.50;2.00;;;;;;;23.06;47.41;102028.56;4969099;28;20038;-69
2023/07/18 05:32:14;;;;;;;2.55;1.80;;;;;;;23.05;47.50;102024.25;4971160;28;20182;-70
2023/07/18 05:34:39;;;;;;;5.55;1.65;;;;;;;23.02;47.43;102015.78;4972278;28;20039;-70
2023/07/18 05:37:05;;;;;;;3.40;1.58;;;;;;;23.02;47.56;102019.28;4969415;28;20515;-68
2023/07/18 05:39:31;;;;;;;2.03;1.48;;;;;;;23.10;47.30;102023.72;4969700;28;20050;-69
2023/07/18 05:41:56;;;;;;;3.10;1.77;;;;;;;23.11;47.28;102034.16;4971394;28;20057;-69
2023/07/18 05:44:22;;;;;;;3.15;1.85;;;;;;;23.16;47.51;102041.63;4970209;28;20034;-70
2023/07/18 05:46:47;;;;;;;2.65;1.83;;;;;;;23.15;47.28;102032.00;4972232;28;20101;-71
2023/07/18 05:49:14;;;;;;;4.45;1.95;;;;;;;23.14;47.34;102035.66;4974539;28;20090;-71
2023/07/18 05:51:40;;;;;;;4.10;2.15;;;;;;;23.05;47.41;102015.44;4972948;28;20086;-71
2023/07/18 05:54:05;;;;;;;3.95;2.00;;;;;;;23.18;47.17;102027.19;4984053;28;20081;-68
2023/07/18 05:56:32;;;;;;;4.57;2.58;;;;;;;23.16;47.33;102034.50;4970578;28;20369;-68
2023/07/18 05:58:59;;;;;;;6.32;2.45;;;;;;;23.19;46.93;102033.31;4970149;28;20034;-70
2023/07/18 06:01:25;;;;;;;5.68;2.15;;;;;;;23.27;46.88;102032.44;4968494;28;20098;-69
2023/07/18 06:03:51;;;;;;;5.68;2.33;;;;;;;23.30;46.71;102035.56;4971230;28;20042;-70
2023/07/18 06:06:16;;;;;;;3.50;2.00;;;;;;;23.33;46.55;102037.88;4970967;28;20039;-70
2023/07/18 06:08:42;;;;;;;5.22;1.77;;;;;;;23.32;46.75;102030.91;4968380;28;20062;-69
2023/07/18 06:11:07;;;;;;;2.28;1.67;;;;;;;23.32;46.51;102028.25;4973493;28;20132;-69
2023/07/18 06:13:33;;;;;;;5.05;1.95;;;;;;;23.34;46.44;102036.06;4969131;28;20054;-70
2023/07/18 06:15:58;;;;;;;2.75;1.70;;;;;;;23.37;46.67;102038.41;4974374;28;20038;-69
2023/07/18 06:18:24;;;;;;;4.60;2.25;;;;;;;23.39;46.38;102029.25;4974233;28;20234;-69
2023/07/18 06:20:50;;;;;;;3.70;2.03;;;;;;;23.39;46.39;102033.72;4972773;28;20050;-69
2023/07/18 06:23:15;;;;;;;3.45;1.83;;;;;;;23.37;46.38;102028.59;4972760;28;20035;-70
2023/07/18 06:25:41;;;;;;;2.05;1.73;;;;;;;23.34;46.34;102023.63;4983532;28;20129;-68
2023/07/18 06:28:07;;;;;;;1.77;1.65;;;;;;;23.43;46.27;102046.50;4966454;28;20053;-66
2023/07/18 06:30:33;;;;;;;3.58;2.00;;;;;;;23.42;46.59;102042.19;4972579;28;20045;-67
2023/07/18 06:32:59;;;;;;;4.45;2.03;;;;;;;23.45;46.46;102043.66;4969373;28;20046;-69
2023/07/18 06:35:25;;;;;;;3.33;2.25;;;;;;;23.48;46.30;102049.44;4972125;28;20041;-69
2023/07/18 06:37:51;;;;;;;4.50;1.77;;;;;;;23.48;46.37;102049.44;4967666;28;20046;-69
2023/07/18 06:40:16;;;;;;;4.35;1.70;;;;;;;23.50;46.22;102046.59;4973109;28;20074;-69
2023/07/18 06:42:43;;;;;;;2.17;1.70;;;;;;;23.52;46.21;102049.94;4969343;28;20050;-70
2023/07/18 06:45:08;;;;;;;2.38;1.65;;;;;;;23.57;46.19;102052.94;4970222;28;20737;-69
2023/07/18 06:47:34;;;;;;;5.38;2.00;;;;;;;23.51;46.15;102040.28;4970141;28;20069;-71
2023/07/18 06:50:00;;;;;;;3.47;1.67;;;;;;;23.56;46.34;102053.06;4967014;28;20129;-69
2023/07/18 06:52:26;;;;;;;4.07;2.03;;;;;;;23.58;46.10;102059.06;4969529;28;20098;-67
2023/07/18 06:54:54;;;;;;;4.03;2.13;;;;;;;23.50;46.03;102042.13;4965178;28;20045;-68
2023/07/18 06:57:19;;;;;;;3.40;1.70;;;;;;;23.58;46.34;102056.41;4971965;28;20073;-68
2023/07/18 06:59:45;;;;;;;3.42;2.05;;;;;;;23.57;46.40;102052.94;4974857;28;20063;-68
2023/07/18 07:02:11;;;;;;;5.70;1.52;;;;;;;23.59;46.31;102058.06;4971081;28;20827;-68
2023/07/18 07:04:39;;;;;;;2.80;1.60;;;;;;;23.60;46.15;102054.41;4968215;28;20055;-71
2023/07/18 07:07:06;;;;;;;5.30;1.90;;;;;;;23.55;46.45;102040.78;4972364;28;20041;-68
2023/07/18 07:09:33;;;;;;;3.58;1.63;;;;;;;23.64;46.50;102047.72;4966753;28;20035;-68
2023/07/18 07:11:59;;;;;;;4.88;2.30;;;;;;;23.61;46.35;102038.28;4967455;28;20433;-68
2023/07/18 07:14:25;;;;;;;6.07;2.05;;;;;;;23.65;46.46;102049.38;4971387;28;20043;-68
2023/07/18 07:16:50;;;;;;;4.70;2.05;;;;;;;23.68;46.64;102049.03;4973131;28;20049;-68
2023/07/18 07:19:16;;;;;;;2.92;1.65;;;;;;;23.51;46.51;102025.16;4966068;28;20553;-68
2023/07/18 07:21:42;;;;;;;3.17;2.03;;;;;;;23.64;46.44;102034.44;4968456;28;20061;-68
2023/07/18 07:24:08;;;;;;;4.78;2.22;;;;;;;23.76;46.45;102043.66;4971153;28;20469;-68
2023/07/18 07:26:37;;;;;;;5.45;1.65;;;;;;;23.73;46.49;102047.50;4964413;28;20045;-68
2023/07/18 07:29:04;;;;;;;6.53;2.00;;;;;;;23.75;46.45;102045.50;4966251;28;20090;-67
2023/07/18 07:31:30;;;;;;;3.97;2.08;;;;;;;23.75;46.35;102040.19;4972540;28;20047;-69
2023/07/18 07:33:56;;;;;;;5.95;2.45;;;;;;;23.75;46.66;102036.69;4966666;28;20049;-68
2023/07/18 07:36:22;;;;;;;8.75;2.70;;;;;;;23.81;46.54;102038.63;4971288;28;20077;-69
2023/07/18 07:38:48;;;;;;;6.25;2.30;;;;;;;23.86;46.55;102038.94;4969694;28;20043;-69
2023/07/18 07:41:14;;;;;;;8.80;2.70;;;;;;;23.93;46.48;102034.56;4967970;28;20051;-69
2023/07/18 07:43:39;;;;;;;7.60;3.13;;;;;;;23.91;46.45;102030.44;4969299;28;20037;-68
2023/07/18 07:46:05;;;;;;;7.57;2.60;;;;;;;23.94;46.95;102044.22;4982474;28;20042;-69
2023/07/18 07:48:30;;;;;;;7.53;2.50;;;;;;;23.96;46.88;102038.69;4969938;28;20046;-69
2023/07/18 07:50:58;;;;;;;7.18;2.35;;;;;;;23.97;47.05;102033.19;4967444;28;20141;-68
2023/07/18 07:53:24;;;;;;;10.25;3.03;;;;;;;23.97;47.12;102035.88;4967355;28;20072;-69
2023/07/18 07:55:49;;;;;;;9.27;2.80;;;;;;;23.98;47.10;102037.53;4961506;28;20394;-69
2023/07/18 07:58:15;;;;;;;8.43;2.63;;;;;;;24.00;47.34;102030.19;4969363;28;20046;-69
2023/07/18 08:00:41;;;;;;;8.07;2.55;;;;;;;24.00;47.24;102040.00;4965604;28;20053;-69
2023/07/18 08:03:06;;;;;;;10.95;3.33;;;;;;;24.03;47.21;102027.16;4967251;28;20085;-69
2023/07/18 08:05:32;;;;;;;6.45;2.88;;;;;;;24.06;47.28;102033.97;4969610;28;20046;-68
2023/07/18 08:07:57;;;;;;;5.45;2.38;;;;;;;24.09;47.31;102030.97;4971662;28;20042;-68
2023/07/18 08:10:23;;;;;;;6.18;2.55;;;;;;;24.13;47.27;102050.88;4965176;28;20098;-69
2023/07/18 08:12:49;;;;;;;8.82;2.72;;;;;;;24.11;47.56;102024.44;4971663;28;20042;-68
2023/07/18 08:15:14;;;;;;;9.98;3.05;;;;;;;24.11;47.13;102029.78;4970784;28;20038;-68
2023/07/18 08:17:40;;;;;;;9.40;2.65;;;;;;;24.05;47.51;102034.97;4970375;28;20493;-67
2023/07/18 08:20:08;;;;;;;5.90;2.20;;;;;;;24.02;47.49;102030.81;4979890;28;20050;-66
2023/07/18 08:22:34;;;;;;;6.38;2.30;;;;;;;24.02;47.48;102030.00;4966224;28;20047;-67
2023/07/18 08:25:00;;;;;;;7.60;2.35;;;;;;;24.05;47.38;102025.13;4967904;28;20146;-68
2023/07/18 08:27:25;;;;;;;4.45;2.03;;;;;;;24.02;47.27;102020.19;4967641;28;20093;-67
2023/07/18 08:29:51;;;;;;;3.72;1.77;;;;;;;24.01;47.21;102023.84;4967611;28;20027;-67
2023/07/18 08:32:17;;;;;;;3.58;1.92;;;;;;;24.03;47.15;102019.19;4967746;28;20057;-67
2023/07/18 08:34:42;;;;;;;7.43;2.75;;;;;;;24.15;47.01;102021.41;4971319;28;20038;-65
2023/07/18 08:37:09;;;;;;;6.90;2.50;;;;;;;24.25;46.46;102009.53;4931614;28;20114;-68
2023/07/18 08:39:39;;;;;;;5.53;2.25;;;;;;;24.39;46.75;102013.22;4973613;28;20564;-70
2023/07/18 08:42:09;;;;;;;3.17;1.77;;;;;;;24.51;46.48;102016.28;4973924;28;20038;-71
2023/07/18 08:44:35;;;;;;;5.07;1.98;;;;;;;24.58;46.32;102010.03;4972109;28;20399;-71
2023/07/18 08:47:03;;;;;;;4.30;1.70;;;;;;;24.68;46.00;102009.78;4968407;28;20074;-70
2023/07/18 08:49:30;;;;;;;3.47;1.88;;;;;;;24.68;46.07;101986.63;4972722;28;20047;-71
2023/07/18 08:51:56;;;;;;;4.57;1.75;;;;;;;24.82;45.80;102000.13;4932674;28;20120;-66
2023/07/18 08:54:21;;;;;;;4.53;1.92;;;;;;;24.91;45.99;101999.00;4967674;28;20035;-66
2023/07/18 08:56:47;;;;;;;4.00;1.77;;;;;;;24.95;46.21;101993.13;4931573;28;20034;-66
2023/07/18 08:59:13;;;;;;;3.10;1.80;;;;;;;24.98;45.51;101987.44;4967083;28;20104;-65
2023/07/18 09:01:49;;;;;;;3.72;1.80;;;;;;;25.09;45.37;101986.16;4959153;28;20038;-71
2023/07/18 09:04:16;;;;;;;5.85;2.25;;;;;;;25.17;45.64;101983.41;4969103;28;20043;-71
2023/07/18 09:07:02;;;;;;;2.65;1.40;;;;;;;25.22;45.22;101980.16;4933531;28;20499;-71
2023/07/18 09:09:44;;;;;;;4.28;1.63;;;;;;;25.12;45.00;101972.44;4958388;28;20029;-69
2023/07/18 09:12:10;;;;;;;2.60;1.67;;;;;;;25.21;44.87;101979.34;4973002;28;20039;-69
2023/07/18 09:14:42;;;;;;;4.75;1.90;;;;;;;25.27;44.75;101981.25;4966874;28;20043;-68
2023/07/18 09:17:16;;;;;;;2.70;1.25;;;;;;;25.34;45.15;101986.66;4979057;28;20043;-66
2023/07/18 09:19:48;;;;;;;4.88;1.85;;;;;;;25.38;44.74;101984.44;4957741;28;20054;-64
2023/07/18 09:22:17;;;;;;;3.92;2.17;;;;;;;25.32;44.95;101982.53;4971429;28;20653;-65
2023/07/18 09:24:43;;;;;;;3.63;1.80;;;;;;;25.29;45.02;101984.53;4932773;28;20046;-65
2023/07/18 09:27:15;;;;;;;4.18;1.55;;;;;;;25.25;45.03;101971.78;4969746;28;20611;-65
2023/07/18 09:29:45;;;;;;;4.25;1.92;;;;;;;25.20;45.12;101968.88;4930946;28;20445;-65
2023/07/18 09:32:17;;;;;;;4.00;2.10;;;;;;;25.17;44.71;101967.41;4974561;28;20053;-65
2023/07/18 09:34:56;;;;;;;3.55;1.60;;;;;;;25.17;44.90;101969.25;4939932;28;20035;-66
2023/07/18 09:37:27;;;;;;;2.45;1.45;;;;;;;25.17;44.69;101974.56;4972096;28;20591;-66
2023/07/18 09:39:59;;;;;;;9.00;2.20;;;;;;;25.15;44.82;101968.59;4957183;28;20611;-65
2023/07/18 09:42:26;;;;;;;3.40;1.73;;;;;;;25.14;44.84;101973.13;4963357;28;20030;-66
2023/07/18 09:44:53;;;;;;;4.80;1.65;;;;;;;25.14;44.87;101973.13;4972648;28;20038;-69
2023/07/18 09:47:19;;;;;;;7.68;1.58;;;;;;;25.20;44.74;101967.03;4971513;28;20129;-69
2023/07/18 09:49:45;;;;;;;3.13;1.27;;;;;;;25.21;45.02;101966.00;4936681;28;20051;-71
2023/07/18 09:52:11;;;;;;;3.15;1.70;;;;;;;25.30;44.86;101964.84;4972960;28;20122;-70
2023/07/18 09:54:38;;;;;;;3.70;1.50;;;;;;;25.35;44.99;101968.81;4945891;28;20251;-66
2023/07/18 09:57:09;;;;;;;6.88;1.70;;;;;;;24.67;44.58;101853.66;4969913;28;20054;-67
2023/07/18 09:59:39;;;;;;;1.83;1.40;;;;;;;25.39;44.91;101970.91;4929136;28;20046;-67
2023/07/18 10:02:10;;;;;;;5.45;1.92;;;;;;;25.43;44.88;101966.84;4970544;28;20043;-68
2023/07/18 10:04:36;;;;;;;3.70;1.60;;;;;;;25.48;44.89;101963.59;4941848;28;20053;-64
2023/07/18 10:07:03;;;;;;;5.43;1.85;;;;;;;25.41;44.54;101944.88;4956844;28;20497;-64
2023/07/18 10:09:31;;;;;;;3.42;1.50;;;;;;;25.54;44.52;101954.84;4971361;28;20046;-65
2023/07/18 10:12:03;;;;;;;4.50;1.50;;;;;;;25.58;44.43;101943.63;4930703;28;20348;-65
2023/07/18 10:14:56;;;;;;;3.65;1.80;;;;;;;25.59;44.53;101942.59;4971433;28;20027;-64
2023/07/18 10:17:35;;;;;;;3.53;1.65;;;;;;;25.64;44.37;101947.34;4932058;28;20042;-65
2023/07/18 10:20:24;;;;;;;4.03;1.50;;;;;;;25.70;44.47;101940.47;4970152;28;20050;-66
2023/07/18 10:22:58;;;;;;;3.38;1.70;;;;;;;25.70;44.46;101935.97;4932671;28;20092;-65
2023/07/18 10:25:26;;;;;;;2.92;1.58;;;;;;;25.72;44.24;101941.94;4957303;28;20047;-66
2023/07/18 10:27:52;;;;;;;1.95;1.10;;;;;;;25.74;44.24;101933.72;4967345;28;20030;-66
2023/07/18 10:30:19;;;;;;;2.88;1.88;;;;;;;25.76;44.11;101921.03;4934633;28;20097;-67
2023/07/18 10:32:56;;;;;;;5.00;1.92;;;;;;;25.76;44.31;101927.19;4970080;28;20042;-66
2023/07/18 10:35:26;;;;;;;3.33;1.75;;;;;;;25.69;43.99;101918.31;4928013;28;20035;-71
2023/07/18 10:38:02;;;;;;;2.33;1.60;;;;;;;25.68;44.30;101913.16;4973097;28;20093;-72
2023/07/18 10:40:31;;;;;;;2.05;1.38;;;;;;;25.67;44.22;101914.13;4940601;28;20038;-67
2023/07/18 10:42:57;;;;;;;2.65;1.38;;;;;;;25.62;44.44;101917.38;4967227;28;20142;-66
2023/07/18 10:45:22;;;;;;;3.08;1.27;;;;;;;25.60;44.49;101914.91;4927757;28;20046;-64
2023/07/18 10:47:48;;;;;;;3.28;1.20;;;;;;;25.58;44.32;101913.44;4968830;28;20043;-64
2023/07/18 10:50:13;;;;;;;2.50;1.50;;;;;;;25.57;44.59;101901.13;4954916;28;20058;-64
2023/07/18 10:52:40;;;;;;;3.50;1.65;;;;;;;25.57;44.59;101893.13;4967763;28;20043;-64
2023/07/18 10:55:06;;;;;;;3.42;1.50;;;;;;;25.54;44.32;101881.00;4931456;28;20911;-64
2023/07/18 10:57:37;;;;;;;3.72;1.55;;;;;;;25.53;44.26;101882.03;4970503;28;20042;-64
2023/07/18 11:00:05;;;;;;;4.20;1.67;;;;;;;25.54;44.43;101882.84;4946356;28;20121;-64
2023/07/18 11:02:41;;;;;;;1.70;1.05;;;;;;;25.55;44.48;101881.84;4971332;28;20081;-64
2023/07/18 11:05:12;;;;;;;3.95;1.88;;;;;;;25.52;44.65;101882.22;4937045;28;20317;-68
2023/07/18 11:07:40;;;;;;;2.58;1.73;;;;;;;25.46;44.13;101869.63;4974231;28;20046;-68
2023/07/18 11:10:08;;;;;;;2.80;1.80;;;;;;;25.52;44.08;101879.56;4933245;28;20031;-65
2023/07/18 11:12:34;;;;;;;3.25;1.65;;;;;;;25.49;44.17;101864.72;4971058;28;20046;-66
2023/07/18 11:14:59;;;;;;;2.80;1.77;;;;;;;25.52;44.43;101879.56;4958252;28;20035;-68
2023/07/18 11:17:25;;;;;;;2.40;1.38;;;;;;;25.45;44.00;101857.31;4972535;28;20042;-68
2023/07/18 11:19:56;;;;;;;2.55;1.20;;;;;;;25.49;44.46;101864.72;4933926;28;20229;-68
2023/07/18 11:22:22;;;;;;;1.67;1.13;;;;;;;25.48;44.13;101867.59;4973126;28;20073;-68